sensor_id;sensor_type;location;lat;lon;timestamp;P1;durP1;ratioP1;P2;durP2;ratioP2
53666;SDS011;39568;51.026;5.468;2023-07-09T00:00:14;20.52;;;13.07;;
53666;SDS011;39568;51.026;5.468;2023-07-09T00:02:42;17.38;;;12.77;;
53666;SDS011;39568;51.026;5.468;2023-07-09T00:05:13;23.60;;;12.20;;
53666;SDS011;39568;51.026;5.468;2023-07-09T00:07:42;20.17;;;12.15;;
53666;SDS011;39568;51.026;5.468;2023-07-09T00:10:14;17.63;;;13.75;;
53666;SDS011;39568;51.026;5.468;2023-07-09T00:12:44;17.80;;;13.13;;
53666;SDS011;39568;51.026;5.468;2023-07-09T00:15:13;21.10;;;13.70;;
53666;SDS011;39568;51.026;5.468;2023-07-09T00:17:43;19.75;;;13.38;;
53666;SDS011;39568;51.026;5.468;2023-07-09T00:20:12;17.85;;;13.60;;
53666;SDS011;39568;51.026;5.468;2023-07-09T00:22:45;16.20;;;13.02;;
53666;SDS011;39568;51.026;5.468;2023-07-09T00:25:18;21.60;;;12.57;;
53666;SDS011;39568;51.026;5.468;2023-07-09T00:27:56;27.98;;;14.52;;
53666;SDS011;39568;51.026;5.468;2023-07-09T00:30:23;21.15;;;12.57;;
53666;SDS011;39568;51.026;5.468;2023-07-09T00:32:51;15.35;;;11.70;;
53666;SDS011;39568;51.026;5.468;2023-07-09T00:35:19;23.50;;;12.32;;
53666;SDS011;39568;51.026;5.468;2023-07-09T00:37:49;18.03;;;11.00;;
53666;SDS011;39568;51.026;5.468;2023-07-09T00:40:16;24.73;;;12.13;;
53666;SDS011;39568;51.026;5.468;2023-07-09T00:42:48;15.13;;;11.20;;
53666;SDS011;39568;51.026;5.468;2023-07-09T00:45:21;17.25;;;12.57;;
53666;SDS011;39568;51.026;5.468;2023-07-09T00:47:53;19.77;;;10.82;;
53666;SDS011;39568;51.026;5.468;2023-07-09T00:50:30;19.60;;;11.75;;
53666;SDS011;39568;51.026;5.468;2023-07-09T00:53:02;19.45;;;12.25;;
53666;SDS011;39568;51.026;5.468;2023-07-09T00:55:36;14.48;;;11.63;;
53666;SDS011;39568;51.026;5.468;2023-07-09T00:58:07;11.93;;;10.68;;
53666;SDS011;39568;51.026;5.468;2023-07-09T01:00:39;13.57;;;11.18;;
53666;SDS011;39568;51.026;5.468;2023-07-09T01:03:11;20.20;;;12.35;;
53666;SDS011;39568;51.026;5.468;2023-07-09T01:05:45;18.73;;;12.25;;
53666;SDS011;39568;51.026;5.468;2023-07-09T01:08:16;16.23;;;10.93;;
53666;SDS011;39568;51.026;5.468;2023-07-09T01:10:43;24.88;;;10.68;;
53666;SDS011;39568;51.026;5.468;2023-07-09T01:13:10;11.60;;;10.40;;
53666;SDS011;39568;51.026;5.468;2023-07-09T01:15:38;28.80;;;11.07;;
53666;SDS011;39568;51.026;5.468;2023-07-09T01:18:05;18.13;;;11.30;;
53666;SDS011;39568;51.026;5.468;2023-07-09T01:20:35;22.67;;;11.43;;
53666;SDS011;39568;51.026;5.468;2023-07-09T01:23:06;19.17;;;11.43;;
53666;SDS011;39568;51.026;5.468;2023-07-09T01:25:35;18.20;;;10.45;;
53666;SDS011;39568;51.026;5.468;2023-07-09T01:28:10;16.00;;;11.38;;
53666;SDS011;39568;51.026;5.468;2023-07-09T01:30:38;13.57;;;11.10;;
53666;SDS011;39568;51.026;5.468;2023-07-09T01:33:07;19.13;;;11.10;;
53666;SDS011;39568;51.026;5.468;2023-07-09T01:35:44;19.77;;;12.10;;
53666;SDS011;39568;51.026;5.468;2023-07-09T01:38:12;19.52;;;11.63;;
53666;SDS011;39568;51.026;5.468;2023-07-09T01:40:41;29.02;;;12.75;;
53666;SDS011;39568;51.026;5.468;2023-07-09T01:43:08;27.33;;;11.63;;
53666;SDS011;39568;51.026;5.468;2023-07-09T01:45:35;16.02;;;11.57;;
53666;SDS011;39568;51.026;5.468;2023-07-09T01:48:02;16.38;;;10.50;;
53666;SDS011;39568;51.026;5.468;2023-07-09T01:50:30;16.83;;;10.77;;
53666;SDS011;39568;51.026;5.468;2023-07-09T01:52:57;19.10;;;10.85;;
53666;SDS011;39568;51.026;5.468;2023-07-09T01:55:26;16.10;;;11.50;;
53666;SDS011;39568;51.026;5.468;2023-07-09T01:57:54;16.90;;;11.65;;
53666;SDS011;39568;51.026;5.468;2023-07-09T02:00:20;24.83;;;11.82;;
53666;SDS011;39568;51.026;5.468;2023-07-09T02:02:51;19.20;;;10.88;;
53666;SDS011;39568;51.026;5.468;2023-07-09T02:05:23;15.63;;;10.27;;
53666;SDS011;39568;51.026;5.468;2023-07-09T02:07:51;17.60;;;10.85;;
53666;SDS011;39568;51.026;5.468;2023-07-09T02:10:17;19.20;;;11.05;;
53666;SDS011;39568;51.026;5.468;2023-07-09T02:12:46;19.83;;;11.65;;
53666;SDS011;39568;51.026;5.468;2023-07-09T02:15:13;15.02;;;10.13;;
53666;SDS011;39568;51.026;5.468;2023-07-09T02:20:10;15.82;;;11.02;;
53666;SDS011;39568;51.026;5.468;2023-07-09T02:22:38;15.52;;;10.75;;
53666;SDS011;39568;51.026;5.468;2023-07-09T02:25:06;25.55;;;10.32;;
53666;SDS011;39568;51.026;5.468;2023-07-09T02:27:34;13.95;;;11.10;;
53666;SDS011;39568;51.026;5.468;2023-07-09T02:30:11;12.00;;;10.80;;
53666;SDS011;39568;51.026;5.468;2023-07-09T02:32:42;11.90;;;10.63;;
53666;SDS011;39568;51.026;5.468;2023-07-09T02:35:10;17.42;;;12.30;;
53666;SDS011;39568;51.026;5.468;2023-07-09T02:37:40;17.60;;;12.18;;
53666;SDS011;39568;51.026;5.468;2023-07-09T02:40:07;17.63;;;12.93;;
53666;SDS011;39568;51.026;5.468;2023-07-09T02:42:39;21.58;;;13.07;;
53666;SDS011;39568;51.026;5.468;2023-07-09T02:45:09;20.67;;;14.57;;
53666;SDS011;39568;51.026;5.468;2023-07-09T02:47:36;18.52;;;12.15;;
53666;SDS011;39568;51.026;5.468;2023-07-09T02:50:03;17.48;;;11.82;;
53666;SDS011;39568;51.026;5.468;2023-07-09T02:52:30;15.18;;;11.68;;
53666;SDS011;39568;51.026;5.468;2023-07-09T02:54:57;20.45;;;12.35;;
53666;SDS011;39568;51.026;5.468;2023-07-09T02:57:24;16.58;;;12.20;;
53666;SDS011;39568;51.026;5.468;2023-07-09T02:59:50;15.95;;;11.68;;
53666;SDS011;39568;51.026;5.468;2023-07-09T03:02:23;17.80;;;12.10;;
53666;SDS011;39568;51.026;5.468;2023-07-09T03:04:52;16.48;;;11.73;;
53666;SDS011;39568;51.026;5.468;2023-07-09T03:07:23;22.63;;;13.05;;
53666;SDS011;39568;51.026;5.468;2023-07-09T03:09:49;24.15;;;12.80;;
53666;SDS011;39568;51.026;5.468;2023-07-09T03:12:16;15.68;;;12.18;;
53666;SDS011;39568;51.026;5.468;2023-07-09T03:14:43;28.00;;;12.95;;
53666;SDS011;39568;51.026;5.468;2023-07-09T03:19:41;20.77;;;11.45;;
53666;SDS011;39568;51.026;5.468;2023-07-09T03:24:37;16.63;;;12.65;;
53666;SDS011;39568;51.026;5.468;2023-07-09T03:27:06;20.73;;;12.80;;
53666;SDS011;39568;51.026;5.468;2023-07-09T03:29:34;18.40;;;12.00;;
53666;SDS011;39568;51.026;5.468;2023-07-09T03:32:04;25.08;;;13.13;;
53666;SDS011;39568;51.026;5.468;2023-07-09T03:34:32;14.00;;;12.02;;
53666;SDS011;39568;51.026;5.468;2023-07-09T03:37:00;17.27;;;12.85;;
53666;SDS011;39568;51.026;5.468;2023-07-09T03:39:27;18.50;;;12.98;;
53666;SDS011;39568;51.026;5.468;2023-07-09T03:41:54;14.23;;;12.45;;
53666;SDS011;39568;51.026;5.468;2023-07-09T03:44:22;17.20;;;12.43;;
53666;SDS011;39568;51.026;5.468;2023-07-09T03:46:49;17.55;;;12.63;;
53666;SDS011;39568;51.026;5.468;2023-07-09T03:49:16;18.20;;;12.27;;
53666;SDS011;39568;51.026;5.468;2023-07-09T03:51:42;16.35;;;12.27;;
53666;SDS011;39568;51.026;5.468;2023-07-09T03:54:10;19.13;;;12.52;;
53666;SDS011;39568;51.026;5.468;2023-07-09T03:56:40;18.40;;;12.73;;
53666;SDS011;39568;51.026;5.468;2023-07-09T03:59:07;18.77;;;12.38;;
53666;SDS011;39568;51.026;5.468;2023-07-09T04:01:34;14.98;;;11.45;;
53666;SDS011;39568;51.026;5.468;2023-07-09T04:04:01;14.95;;;11.20;;
53666;SDS011;39568;51.026;5.468;2023-07-09T04:06:28;20.90;;;12.32;;
53666;SDS011;39568;51.026;5.468;2023-07-09T04:08:56;19.10;;;12.77;;
53666;SDS011;39568;51.026;5.468;2023-07-09T04:11:32;17.02;;;12.55;;
53666;SDS011;39568;51.026;5.468;2023-07-09T04:13:59;18.23;;;11.35;;
53666;SDS011;39568;51.026;5.468;2023-07-09T04:16:25;12.73;;;11.30;;
53666;SDS011;39568;51.026;5.468;2023-07-09T04:18:52;20.75;;;11.20;;
53666;SDS011;39568;51.026;5.468;2023-07-09T04:21:22;15.98;;;11.15;;
53666;SDS011;39568;51.026;5.468;2023-07-09T04:23:49;20.90;;;12.10;;
53666;SDS011;39568;51.026;5.468;2023-07-09T04:26:22;18.15;;;11.25;;
53666;SDS011;39568;51.026;5.468;2023-07-09T04:28:50;19.67;;;11.48;;
53666;SDS011;39568;51.026;5.468;2023-07-09T04:31:19;17.58;;;11.73;;
53666;SDS011;39568;51.026;5.468;2023-07-09T04:33:47;17.80;;;11.00;;
53666;SDS011;39568;51.026;5.468;2023-07-09T04:36:13;24.90;;;10.75;;
53666;SDS011;39568;51.026;5.468;2023-07-09T04:38:40;19.20;;;11.75;;
53666;SDS011;39568;51.026;5.468;2023-07-09T04:41:06;17.58;;;11.65;;
53666;SDS011;39568;51.026;5.468;2023-07-09T04:43:36;21.25;;;10.70;;
53666;SDS011;39568;51.026;5.468;2023-07-09T04:46:08;19.08;;;9.88;;
53666;SDS011;39568;51.026;5.468;2023-07-09T04:48:35;18.25;;;11.30;;
53666;SDS011;39568;51.026;5.468;2023-07-09T04:51:01;15.07;;;11.10;;
53666;SDS011;39568;51.026;5.468;2023-07-09T04:53:29;15.70;;;10.52;;
53666;SDS011;39568;51.026;5.468;2023-07-09T04:55:56;12.50;;;9.98;;
53666;SDS011;39568;51.026;5.468;2023-07-09T04:58:23;18.23;;;10.45;;
53666;SDS011;39568;51.026;5.468;2023-07-09T05:00:49;22.45;;;10.88;;
53666;SDS011;39568;51.026;5.468;2023-07-09T05:03:18;19.45;;;11.18;;
53666;SDS011;39568;51.026;5.468;2023-07-09T05:05:48;15.90;;;10.30;;
53666;SDS011;39568;51.026;5.468;2023-07-09T05:08:15;19.00;;;10.20;;
53666;SDS011;39568;51.026;5.468;2023-07-09T05:10:43;19.48;;;10.43;;
53666;SDS011;39568;51.026;5.468;2023-07-09T05:13:13;13.98;;;9.82;;
53666;SDS011;39568;51.026;5.468;2023-07-09T05:15:46;16.38;;;10.20;;
53666;SDS011;39568;51.026;5.468;2023-07-09T05:18:14;17.25;;;10.30;;
53666;SDS011;39568;51.026;5.468;2023-07-09T05:20:46;15.05;;;9.32;;
53666;SDS011;39568;51.026;5.468;2023-07-09T05:23:14;17.73;;;10.70;;
53666;SDS011;39568;51.026;5.468;2023-07-09T05:25:41;14.52;;;9.02;;
53666;SDS011;39568;51.026;5.468;2023-07-09T05:28:11;12.40;;;9.23;;
53666;SDS011;39568;51.026;5.468;2023-07-09T05:30:41;15.70;;;9.10;;
53666;SDS011;39568;51.026;5.468;2023-07-09T05:33:08;16.08;;;9.75;;
53666;SDS011;39568;51.026;5.468;2023-07-09T05:35:35;14.05;;;8.55;;
53666;SDS011;39568;51.026;5.468;2023-07-09T05:38:03;15.02;;;9.07;;
53666;SDS011;39568;51.026;5.468;2023-07-09T05:40:30;10.57;;;8.00;;
53666;SDS011;39568;51.026;5.468;2023-07-09T05:42:57;13.38;;;8.65;;
53666;SDS011;39568;51.026;5.468;2023-07-09T05:45:25;12.07;;;9.10;;
53666;SDS011;39568;51.026;5.468;2023-07-09T05:47:52;17.35;;;8.20;;
53666;SDS011;39568;51.026;5.468;2023-07-09T05:50:18;13.05;;;7.85;;
53666;SDS011;39568;51.026;5.468;2023-07-09T05:52:45;20.17;;;8.27;;
53666;SDS011;39568;51.026;5.468;2023-07-09T05:55:13;19.33;;;9.05;;
53666;SDS011;39568;51.026;5.468;2023-07-09T05:57:42;21.27;;;8.07;;
53666;SDS011;39568;51.026;5.468;2023-07-09T06:00:09;13.65;;;7.22;;
53666;SDS011;39568;51.026;5.468;2023-07-09T06:02:37;18.73;;;8.25;;
53666;SDS011;39568;51.026;5.468;2023-07-09T06:05:04;12.77;;;7.40;;
53666;SDS011;39568;51.026;5.468;2023-07-09T06:07:36;20.45;;;8.30;;
53666;SDS011;39568;51.026;5.468;2023-07-09T06:10:03;14.65;;;7.78;;
53666;SDS011;39568;51.026;5.468;2023-07-09T06:12:36;12.07;;;7.22;;
53666;SDS011;39568;51.026;5.468;2023-07-09T06:15:04;13.65;;;7.40;;
53666;SDS011;39568;51.026;5.468;2023-07-09T06:17:31;11.30;;;7.40;;
53666;SDS011;39568;51.026;5.468;2023-07-09T06:19:58;9.95;;;6.68;;
53666;SDS011;39568;51.026;5.468;2023-07-09T06:22:24;15.70;;;7.38;;
53666;SDS011;39568;51.026;5.468;2023-07-09T06:24:51;10.90;;;6.53;;
53666;SDS011;39568;51.026;5.468;2023-07-09T06:27:18;12.50;;;7.22;;
53666;SDS011;39568;51.026;5.468;2023-07-09T06:29:47;10.77;;;7.53;;
53666;SDS011;39568;51.026;5.468;2023-07-09T06:32:15;11.07;;;6.95;;
53666;SDS011;39568;51.026;5.468;2023-07-09T06:34:43;12.60;;;6.53;;
53666;SDS011;39568;51.026;5.468;2023-07-09T06:37:09;15.60;;;6.88;;
53666;SDS011;39568;51.026;5.468;2023-07-09T06:39:36;11.25;;;6.57;;
53666;SDS011;39568;51.026;5.468;2023-07-09T06:42:03;12.63;;;7.10;;
53666;SDS011;39568;51.026;5.468;2023-07-09T06:44:31;6.57;;;5.90;;
53666;SDS011;39568;51.026;5.468;2023-07-09T06:46:59;11.30;;;6.45;;
53666;SDS011;39568;51.026;5.468;2023-07-09T06:49:27;8.63;;;6.18;;
53666;SDS011;39568;51.026;5.468;2023-07-09T06:51:57;7.63;;;5.60;;
53666;SDS011;39568;51.026;5.468;2023-07-09T06:54:27;15.18;;;6.53;;
53666;SDS011;39568;51.026;5.468;2023-07-09T06:56:53;10.07;;;5.82;;
53666;SDS011;39568;51.026;5.468;2023-07-09T06:59:20;7.85;;;5.47;;
53666;SDS011;39568;51.026;5.468;2023-07-09T07:01:47;8.85;;;5.32;;
53666;SDS011;39568;51.026;5.468;2023-07-09T07:04:17;9.48;;;5.53;;
53666;SDS011;39568;51.026;5.468;2023-07-09T07:06:44;7.82;;;5.32;;
53666;SDS011;39568;51.026;5.468;2023-07-09T07:09:11;5.55;;;4.97;;
53666;SDS011;39568;51.026;5.468;2023-07-09T07:11:38;6.82;;;5.72;;
53666;SDS011;39568;51.026;5.468;2023-07-09T07:14:04;14.05;;;5.05;;
53666;SDS011;39568;51.026;5.468;2023-07-09T07:16:32;5.70;;;5.13;;
53666;SDS011;39568;51.026;5.468;2023-07-09T07:18:59;10.27;;;5.30;;
53666;SDS011;39568;51.026;5.468;2023-07-09T07:21:32;5.53;;;4.30;;
53666;SDS011;39568;51.026;5.468;2023-07-09T07:23:59;10.38;;;5.00;;
53666;SDS011;39568;51.026;5.468;2023-07-09T07:26:28;7.75;;;4.63;;
53666;SDS011;39568;51.026;5.468;2023-07-09T07:28:55;6.05;;;4.63;;
53666;SDS011;39568;51.026;5.468;2023-07-09T07:31:22;8.90;;;4.88;;
53666;SDS011;39568;51.026;5.468;2023-07-09T07:33:50;10.13;;;5.07;;
53666;SDS011;39568;51.026;5.468;2023-07-09T07:36:21;8.77;;;5.47;;
53666;SDS011;39568;51.026;5.468;2023-07-09T07:38:53;5.95;;;5.28;;
53666;SDS011;39568;51.026;5.468;2023-07-09T07:41:21;7.78;;;5.32;;
53666;SDS011;39568;51.026;5.468;2023-07-09T07:46:18;11.18;;;4.93;;
53666;SDS011;39568;51.026;5.468;2023-07-09T07:48:45;5.32;;;4.25;;
53666;SDS011;39568;51.026;5.468;2023-07-09T07:51:14;5.63;;;4.65;;
53666;SDS011;39568;51.026;5.468;2023-07-09T07:53:41;9.85;;;5.32;;
53666;SDS011;39568;51.026;5.468;2023-07-09T07:56:09;16.80;;;5.07;;
53666;SDS011;39568;51.026;5.468;2023-07-09T07:58:39;6.57;;;4.00;;
53666;SDS011;39568;51.026;5.468;2023-07-09T08:01:07;6.20;;;4.10;;
53666;SDS011;39568;51.026;5.468;2023-07-09T08:03:34;5.47;;;4.43;;
53666;SDS011;39568;51.026;5.468;2023-07-09T08:06:01;5.60;;;4.88;;
53666;SDS011;39568;51.026;5.468;2023-07-09T08:08:28;6.80;;;4.22;;
53666;SDS011;39568;51.026;5.468;2023-07-09T08:10:59;11.32;;;4.75;;
53666;SDS011;39568;51.026;5.468;2023-07-09T08:13:31;8.25;;;5.53;;
53666;SDS011;39568;51.026;5.468;2023-07-09T08:15:58;6.93;;;5.03;;
53666;SDS011;39568;51.026;5.468;2023-07-09T08:18:27;9.50;;;4.88;;
53666;SDS011;39568;51.026;5.468;2023-07-09T08:20:54;10.27;;;4.47;;
53666;SDS011;39568;51.026;5.468;2023-07-09T08:23:20;12.63;;;4.78;;
53666;SDS011;39568;51.026;5.468;2023-07-09T08:28:21;7.10;;;4.18;;
53666;SDS011;39568;51.026;5.468;2023-07-09T08:30:52;8.70;;;5.05;;
53666;SDS011;39568;51.026;5.468;2023-07-09T08:33:20;11.40;;;4.35;;
53666;SDS011;39568;51.026;5.468;2023-07-09T08:35:48;6.05;;;4.68;;
53666;SDS011;39568;51.026;5.468;2023-07-09T08:38:15;9.48;;;4.65;;
53666;SDS011;39568;51.026;5.468;2023-07-09T08:40:46;5.72;;;4.28;;
53666;SDS011;39568;51.026;5.468;2023-07-09T08:43:21;5.22;;;4.20;;
53666;SDS011;39568;51.026;5.468;2023-07-09T08:46:10;11.73;;;4.90;;
53666;SDS011;39568;51.026;5.468;2023-07-09T08:48:47;7.25;;;4.50;;
53666;SDS011;39568;51.026;5.468;2023-07-09T08:51:19;8.73;;;4.22;;
53666;SDS011;39568;51.026;5.468;2023-07-09T08:53:53;4.43;;;3.78;;
53666;SDS011;39568;51.026;5.468;2023-07-09T08:56:24;16.92;;;4.38;;
53666;SDS011;39568;51.026;5.468;2023-07-09T08:58:52;4.72;;;4.07;;
53666;SDS011;39568;51.026;5.468;2023-07-09T09:01:24;4.33;;;3.60;;
53666;SDS011;39568;51.026;5.468;2023-07-09T09:03:55;7.80;;;3.75;;
53666;SDS011;39568;51.026;5.468;2023-07-09T09:06:27;15.43;;;3.90;;
53666;SDS011;39568;51.026;5.468;2023-07-09T09:08:58;6.65;;;4.22;;
53666;SDS011;39568;51.026;5.468;2023-07-09T09:11:33;9.43;;;4.32;;
53666;SDS011;39568;51.026;5.468;2023-07-09T09:14:17;10.57;;;4.55;;
53666;SDS011;39568;51.026;5.468;2023-07-09T09:16:51;10.55;;;4.32;;
53666;SDS011;39568;51.026;5.468;2023-07-09T09:19:20;6.30;;;4.25;;
53666;SDS011;39568;51.026;5.468;2023-07-09T09:21:50;5.90;;;3.75;;
53666;SDS011;39568;51.026;5.468;2023-07-09T09:24:25;7.72;;;4.63;;
53666;SDS011;39568;51.026;5.468;2023-07-09T09:26:57;7.13;;;4.78;;
53666;SDS011;39568;51.026;5.468;2023-07-09T09:29:25;11.30;;;4.40;;
53666;SDS011;39568;51.026;5.468;2023-07-09T09:31:55;5.72;;;3.80;;
53666;SDS011;39568;51.026;5.468;2023-07-09T09:34:25;6.00;;;4.03;;
53666;SDS011;39568;51.026;5.468;2023-07-09T09:36:53;5.43;;;3.65;;
53666;SDS011;39568;51.026;5.468;2023-07-09T09:39:24;8.00;;;3.95;;
53666;SDS011;39568;51.026;5.468;2023-07-09T09:41:52;7.22;;;4.20;;
53666;SDS011;39568;51.026;5.468;2023-07-09T09:44:21;4.82;;;4.25;;
53666;SDS011;39568;51.026;5.468;2023-07-09T09:46:51;6.38;;;3.70;;
53666;SDS011;39568;51.026;5.468;2023-07-09T09:49:22;7.13;;;4.13;;
53666;SDS011;39568;51.026;5.468;2023-07-09T09:51:49;3.88;;;3.58;;
53666;SDS011;39568;51.026;5.468;2023-07-09T09:54:19;8.00;;;3.90;;
53666;SDS011;39568;51.026;5.468;2023-07-09T09:56:52;6.88;;;3.60;;
53666;SDS011;39568;51.026;5.468;2023-07-09T09:59:20;5.53;;;4.20;;
53666;SDS011;39568;51.026;5.468;2023-07-09T10:01:57;8.90;;;4.22;;
53666;SDS011;39568;51.026;5.468;2023-07-09T10:04:25;8.40;;;4.78;;
53666;SDS011;39568;51.026;5.468;2023-07-09T10:06:52;4.43;;;3.22;;
53666;SDS011;39568;51.026;5.468;2023-07-09T10:09:24;5.00;;;3.58;;
53666;SDS011;39568;51.026;5.468;2023-07-09T10:11:58;8.05;;;3.97;;
53666;SDS011;39568;51.026;5.468;2023-07-09T10:14:32;7.13;;;4.10;;
53666;SDS011;39568;51.026;5.468;2023-07-09T10:17:06;5.63;;;3.53;;
53666;SDS011;39568;51.026;5.468;2023-07-09T10:19:47;8.70;;;4.55;;
53666;SDS011;39568;51.026;5.468;2023-07-09T10:22:19;9.73;;;4.10;;
53666;SDS011;39568;51.026;5.468;2023-07-09T10:24:59;7.63;;;4.07;;
53666;SDS011;39568;51.026;5.468;2023-07-09T10:27:36;3.38;;;3.10;;
53666;SDS011;39568;51.026;5.468;2023-07-09T10:30:15;9.73;;;3.67;;
53666;SDS011;39568;51.026;5.468;2023-07-09T10:32:56;7.35;;;3.13;;
53666;SDS011;39568;51.026;5.468;2023-07-09T10:35:32;3.92;;;3.65;;
53666;SDS011;39568;51.026;5.468;2023-07-09T10:38:26;7.00;;;3.33;;
53666;SDS011;39568;51.026;5.468;2023-07-09T10:41:09;8.25;;;3.47;;
53666;SDS011;39568;51.026;5.468;2023-07-09T10:43:37;9.57;;;3.72;;
53666;SDS011;39568;51.026;5.468;2023-07-09T10:46:10;5.95;;;3.60;;
53666;SDS011;39568;51.026;5.468;2023-07-09T10:51:15;4.30;;;3.20;;
53666;SDS011;39568;51.026;5.468;2023-07-09T10:53:48;4.25;;;3.63;;
53666;SDS011;39568;51.026;5.468;2023-07-09T10:56:19;5.47;;;3.25;;
53666;SDS011;39568;51.026;5.468;2023-07-09T10:58:50;3.38;;;3.08;;
53666;SDS011;39568;51.026;5.468;2023-07-09T11:01:25;6.80;;;2.90;;
53666;SDS011;39568;51.026;5.468;2023-07-09T11:03:59;6.35;;;3.95;;
53666;SDS011;39568;51.026;5.468;2023-07-09T11:06:31;12.30;;;3.67;;
53666;SDS011;39568;51.026;5.468;2023-07-09T11:09:00;4.78;;;3.28;;
53666;SDS011;39568;51.026;5.468;2023-07-09T11:13:59;5.68;;;3.10;;
53666;SDS011;39568;51.026;5.468;2023-07-09T11:16:31;8.25;;;3.10;;
53666;SDS011;39568;51.026;5.468;2023-07-09T11:19:02;4.82;;;3.50;;
53666;SDS011;39568;51.026;5.468;2023-07-09T11:21:31;5.85;;;3.50;;
53666;SDS011;39568;51.026;5.468;2023-07-09T11:24:04;4.68;;;3.70;;
53666;SDS011;39568;51.026;5.468;2023-07-09T11:26:33;5.35;;;3.45;;
53666;SDS011;39568;51.026;5.468;2023-07-09T11:29:15;6.82;;;3.05;;
53666;SDS011;39568;51.026;5.468;2023-07-09T11:31:43;5.10;;;4.13;;
53666;SDS011;39568;51.026;5.468;2023-07-09T11:34:17;4.75;;;2.85;;
53666;SDS011;39568;51.026;5.468;2023-07-09T11:36:48;5.07;;;2.85;;
53666;SDS011;39568;51.026;5.468;2023-07-09T11:39:27;3.20;;;2.30;;
53666;SDS011;39568;51.026;5.468;2023-07-09T11:41:55;5.25;;;2.38;;
53666;SDS011;39568;51.026;5.468;2023-07-09T11:44:25;9.02;;;4.03;;
53666;SDS011;39568;51.026;5.468;2023-07-09T11:46:58;4.20;;;3.45;;
53666;SDS011;39568;51.026;5.468;2023-07-09T11:49:46;6.50;;;2.88;;
53666;SDS011;39568;51.026;5.468;2023-07-09T11:52:24;3.03;;;2.72;;
53666;SDS011;39568;51.026;5.468;2023-07-09T11:54:54;6.68;;;3.13;;
53666;SDS011;39568;51.026;5.468;2023-07-09T11:57:22;6.40;;;2.80;;
53666;SDS011;39568;51.026;5.468;2023-07-09T11:59:50;6.70;;;3.47;;
53666;SDS011;39568;51.026;5.468;2023-07-09T12:02:17;9.40;;;3.58;;
53666;SDS011;39568;51.026;5.468;2023-07-09T12:04:48;5.32;;;2.55;;
53666;SDS011;39568;51.026;5.468;2023-07-09T12:07:16;8.48;;;3.92;;
53666;SDS011;39568;51.026;5.468;2023-07-09T12:09:49;5.20;;;2.83;;
53666;SDS011;39568;51.026;5.468;2023-07-09T12:12:19;5.80;;;3.28;;
53666;SDS011;39568;51.026;5.468;2023-07-09T12:14:48;4.00;;;2.97;;
53666;SDS011;39568;51.026;5.468;2023-07-09T12:17:15;3.72;;;2.83;;
53666;SDS011;39568;51.026;5.468;2023-07-09T12:19:44;8.05;;;3.78;;
53666;SDS011;39568;51.026;5.468;2023-07-09T12:22:16;5.95;;;4.55;;
53666;SDS011;39568;51.026;5.468;2023-07-09T12:24:46;10.90;;;3.65;;
53666;SDS011;39568;51.026;5.468;2023-07-09T12:27:17;10.23;;;4.50;;
53666;SDS011;39568;51.026;5.468;2023-07-09T12:29:46;9.77;;;4.30;;
53666;SDS011;39568;51.026;5.468;2023-07-09T12:32:15;5.30;;;3.63;;
53666;SDS011;39568;51.026;5.468;2023-07-09T12:34:46;10.23;;;4.72;;
53666;SDS011;39568;51.026;5.468;2023-07-09T12:37:24;6.87;;;5.27;;
53666;SDS011;39568;51.026;5.468;2023-07-09T12:39:58;10.02;;;5.28;;
53666;SDS011;39568;51.026;5.468;2023-07-09T12:42:28;12.93;;;5.72;;
53666;SDS011;39568;51.026;5.468;2023-07-09T12:44:57;12.80;;;7.22;;
53666;SDS011;39568;51.026;5.468;2023-07-09T12:47:24;5.15;;;4.45;;
53666;SDS011;39568;51.026;5.468;2023-07-09T12:49:59;11.98;;;6.78;;
53666;SDS011;39568;51.026;5.468;2023-07-09T12:52:29;8.38;;;6.18;;
53666;SDS011;39568;51.026;5.468;2023-07-09T12:54:56;11.68;;;6.72;;
53666;SDS011;39568;51.026;5.468;2023-07-09T12:57:24;8.48;;;6.80;;
53666;SDS011;39568;51.026;5.468;2023-07-09T12:59:53;10.98;;;7.38;;
53666;SDS011;39568;51.026;5.468;2023-07-09T13:02:23;13.50;;;8.00;;
53666;SDS011;39568;51.026;5.468;2023-07-09T13:04:59;13.30;;;7.78;;
53666;SDS011;39568;51.026;5.468;2023-07-09T13:07:29;12.77;;;7.82;;
53666;SDS011;39568;51.026;5.468;2023-07-09T13:10:04;17.55;;;10.88;;
53666;SDS011;39568;51.026;5.468;2023-07-09T13:12:33;8.07;;;7.30;;
53666;SDS011;39568;51.026;5.468;2023-07-09T13:15:00;16.58;;;8.23;;
53666;SDS011;39568;51.026;5.468;2023-07-09T13:17:29;16.83;;;8.70;;
53666;SDS011;39568;51.026;5.468;2023-07-09T13:19:57;15.68;;;10.50;;
53666;SDS011;39568;51.026;5.468;2023-07-09T13:22:24;21.65;;;10.50;;
53666;SDS011;39568;51.026;5.468;2023-07-09T13:24:54;23.65;;;10.65;;
53666;SDS011;39568;51.026;5.468;2023-07-09T13:27:21;32.78;;;11.63;;
53666;SDS011;39568;51.026;5.468;2023-07-09T13:29:48;23.95;;;11.73;;
53666;SDS011;39568;51.026;5.468;2023-07-09T13:32:15;27.20;;;16.60;;
53666;SDS011;39568;51.026;5.468;2023-07-09T13:34:46;18.70;;;12.75;;
53666;SDS011;39568;51.026;5.468;2023-07-09T13:37:14;29.15;;;18.10;;
53666;SDS011;39568;51.026;5.468;2023-07-09T13:39:42;23.98;;;14.15;;
53666;SDS011;39568;51.026;5.468;2023-07-09T13:42:14;25.15;;;14.57;;
53666;SDS011;39568;51.026;5.468;2023-07-09T13:44:43;15.70;;;10.13;;
53666;SDS011;39568;51.026;5.468;2023-07-09T13:47:12;21.00;;;15.93;;
53666;SDS011;39568;51.026;5.468;2023-07-09T13:49:41;18.02;;;12.90;;
53666;SDS011;39568;51.026;5.468;2023-07-09T13:52:09;13.50;;;11.15;;
53666;SDS011;39568;51.026;5.468;2023-07-09T13:54:41;21.55;;;13.13;;
53666;SDS011;39568;51.026;5.468;2023-07-09T13:57:14;23.60;;;13.85;;
53666;SDS011;39568;51.026;5.468;2023-07-09T13:59:42;12.98;;;9.70;;
53666;SDS011;39568;51.026;5.468;2023-07-09T14:02:17;10.55;;;8.57;;
53666;SDS011;39568;51.026;5.468;2023-07-09T14:04:49;13.10;;;7.50;;
53666;SDS011;39568;51.026;5.468;2023-07-09T14:07:26;17.15;;;9.05;;
53666;SDS011;39568;51.026;5.468;2023-07-09T14:09:57;12.43;;;6.95;;
53666;SDS011;39568;51.026;5.468;2023-07-09T14:12:25;16.30;;;11.32;;
53666;SDS011;39568;51.026;5.468;2023-07-09T14:14:55;12.40;;;8.52;;
53666;SDS011;39568;51.026;5.468;2023-07-09T14:17:24;9.40;;;7.07;;
53666;SDS011;39568;51.026;5.468;2023-07-09T14:19:51;17.52;;;9.48;;
53666;SDS011;39568;51.026;5.468;2023-07-09T14:22:20;11.82;;;8.95;;
53666;SDS011;39568;51.026;5.468;2023-07-09T14:24:51;13.43;;;9.05;;
53666;SDS011;39568;51.026;5.468;2023-07-09T14:27:18;9.45;;;7.90;;
53666;SDS011;39568;51.026;5.468;2023-07-09T14:29:47;8.38;;;7.43;;
53666;SDS011;39568;51.026;5.468;2023-07-09T14:32:22;11.52;;;7.35;;
53666;SDS011;39568;51.026;5.468;2023-07-09T14:35:00;13.73;;;7.65;;
53666;SDS011;39568;51.026;5.468;2023-07-09T14:37:27;11.25;;;7.43;;
53666;SDS011;39568;51.026;5.468;2023-07-09T14:39:54;11.10;;;7.68;;
53666;SDS011;39568;51.026;5.468;2023-07-09T14:42:21;9.77;;;6.97;;
53666;SDS011;39568;51.026;5.468;2023-07-09T14:44:50;10.55;;;7.10;;
53666;SDS011;39568;51.026;5.468;2023-07-09T14:47:18;7.57;;;6.88;;
53666;SDS011;39568;51.026;5.468;2023-07-09T14:49:46;10.98;;;7.60;;
53666;SDS011;39568;51.026;5.468;2023-07-09T14:52:14;10.43;;;6.82;;
53666;SDS011;39568;51.026;5.468;2023-07-09T14:54:46;7.18;;;6.22;;
53666;SDS011;39568;51.026;5.468;2023-07-09T14:57:17;10.57;;;7.10;;
53666;SDS011;39568;51.026;5.468;2023-07-09T14:59:53;7.95;;;6.25;;
53666;SDS011;39568;51.026;5.468;2023-07-09T15:02:21;9.32;;;6.50;;
53666;SDS011;39568;51.026;5.468;2023-07-09T15:04:51;12.43;;;7.72;;